Time;durP1;ratioP1;P1;durP2;ratioP2;P2;SDS_P1;SDS_P2;PMS_P1;PMS_P2;Temp;Humidity;BMP_temperature;BMP_pressure;BME280_temperature;BME280_humidity;BME280_pressure;Samples;Min_cycle;Max_cycle;Signal;HPM_P1;HPM_P2
2022/01/25 00:08:25;;;;;;;18.27;7.70;;;;;;;3.17;100.00;102048.71;3493624;82;98892;-90
2022/01/25 00:29:46;;;;;;;11.45;5.55;;;;;;;3.10;100.00;102058.31;3511156;82;98597;-90
2022/01/25 00:34:29;;;;;;;12.20;4.58;;;;;;;3.07;100.00;102058.33;3517602;82;98669;-89
2022/01/25 00:39:31;;;;;;;10.90;3.90;;;;;;;3.04;100.00;102049.94;3510794;81;98648;-90
2022/01/25 00:44:36;;;;;;;9.80;4.20;;;;;;;3.03;100.00;102042.34;3513373;82;98870;-90
2022/01/25 00:49:40;;;;;;;7.60;3.85;;;;;;;3.04;100.00;102051.30;3513545;82;98704;-89
2022/01/25 00:54:43;;;;;;;9.93;4.62;;;;;;;3.04;100.00;102047.22;3523613;82;99097;-90
2022/01/25 00:59:45;;;;;;;14.07;5.75;;;;;;;3.03;100.00;102044.24;3522891;82;98839;-90
2022/01/25 01:04:46;;;;;;;12.45;6.67;;;;;;;3.04;100.00;102034.98;3526991;81;98598;-90
2022/01/25 01:09:50;;;;;;;15.32;7.47;;;;;;;3.02;100.00;102033.11;3544074;82;98829;-90
2022/01/25 01:15:00;;;;;;;15.98;8.05;;;;;;;2.98;100.00;102039.67;3532477;82;98812;-92
2022/01/25 01:30:58;;;;;;;12.07;5.65;;;;;;;2.91;100.00;102008.48;3499011;83;98972;-89
2022/01/25 01:46:31;;;;;;;12.55;6.15;;;;;;;2.80;100.00;102002.88;3448507;83;98008;-90
2022/01/25 01:51:28;;;;;;;11.50;5.17;;;;;;;2.78;100.00;102005.09;3499351;83;98920;-90
2022/01/25 01:56:27;;;;;;;10.45;4.95;;;;;;;2.78;100.00;101992.85;3534266;82;98928;-89
2022/01/25 02:01:30;;;;;;;12.20;5.70;;;;;;;2.75;100.00;101996.95;3468631;83;98972;-90
2022/01/25 02:06:32;;;;;;;12.15;6.12;;;;;;;2.73;100.00;101991.54;3514912;82;98883;-90
2022/01/25 02:11:33;;;;;;;14.43;6.50;;;;;;;2.71;100.00;101996.44;3508599;82;98763;-92
2022/01/25 02:17:49;;;;;;;;;;;;;;;;;;;;;
2022/01/25 02:27:01;;;;;;;14.65;7.45;;;;;;;2.69;100.00;101976.33;3518087;82;99270;-91
2022/01/25 02:32:04;;;;;;;15.05;7.78;;;;;;;2.70;100.00;101968.45;3513030;82;98812;-89
2022/01/25 02:37:11;;;;;;;15.73;7.50;;;;;;;2.66;100.00;101955.70;3520748;82;98813;-90
2022/01/25 02:42:15;;;;;;;14.60;7.25;;;;;;;2.65;100.00;101951.38;3519166;82;98887;-89
2022/01/25 02:52:36;;;;;;;18.75;8.95;;;;;;;2.61;100.00;101943.52;3506909;82;98639;-90
2022/01/25 02:57:37;;;;;;;18.60;8.63;;;;;;;2.58;100.00;101955.78;3522992;81;98638;-90
2022/01/25 03:02:39;;;;;;;18.57;8.77;;;;;;;2.58;100.00;101959.06;3515662;82;98953;-89
2022/01/25 03:07:49;;;;;;;20.77;9.30;;;;;;;2.57;100.00;101956.88;3512820;82;98824;-89
2022/01/25 03:12:55;;;;;;;21.10;9.00;;;;;;;2.59;100.00;101949.81;3496770;82;98998;-89
2022/01/25 03:18:01;;;;;;;22.70;10.28;;;;;;;2.60;100.00;101946.81;3335446;85;33510;-89
2022/01/25 03:27:57;;;;;;;21.83;9.70;;;;;;;2.62;100.00;101942.45;3511213;83;99450;-89
2022/01/25 03:32:58;;;;;;;22.55;9.90;;;;;;;2.63;100.00;101949.50;3482814;83;98927;-90
2022/01/25 03:37:59;;;;;;;21.82;8.88;;;;;;;2.62;100.00;101940.53;3511082;83;98847;-89
2022/01/25 03:43:03;;;;;;;22.60;8.47;;;;;;;2.62;100.00;101953.33;3494745;82;98813;-89
2022/01/25 03:53:15;;;;;;;24.27;9.03;;;;;;;2.61;100.00;101946.24;3503085;82;98952;-89
2022/01/25 03:58:22;;;;;;;19.85;8.60;;;;;;;2.60;100.00;101948.17;3513290;83;99036;-90
2022/01/25 04:03:33;;;;;;;;;;;;;;;2.60;100.00;101945.98;3505752;83;98963;-88
2022/01/25 04:08:28;;;;;;;27.58;11.60;;;;;;;2.60;100.00;101937.84;3509529;82;84998;-89
2022/01/25 04:13:29;;;;;;;28.93;9.67;;;;;;;2.59;100.00;101927.53;3468177;82;99128;-89
2022/01/25 04:18:46;;;;;;;27.07;11.30;;;;;;;2.63;100.00;101933.20;3460228;83;98971;-89
2022/01/25 04:28:55;;;;;;;30.45;13.58;;;;;;;2.62;100.00;101907.91;3475609;83;99034;-89
2022/01/25 04:34:07;;;;;;;27.10;11.40;;;;;;;2.60;100.00;101901.97;3483689;83;98943;-89
2022/01/25 04:49:42;;;;;;;98.30;35.25;;;;;;;2.60;100.00;101885.66;3479873;83;99008;-89
2022/01/25 05:00:10;;;;;;;46.88;16.25;;;;;;;2.60;100.00;101875.33;3470222;83;99104;-89
2022/01/25 05:05:14;;;;;;;41.30;14.50;;;;;;;2.60;100.00;101869.89;3479432;83;98669;-90
2022/01/25 05:10:11;;;;;;;71.05;22.40;;;;;;;2.60;100.00;101887.55;3497158;83;98859;-90
2022/01/25 05:15:38;;;;;;;45.67;16.50;;;;;;;2.60;100.00;101886.19;3474972;83;99443;-89
2022/01/25 05:25:30;;;;;;;31.95;13.40;;;;;;;2.60;100.00;101882.12;3437821;83;99105;-90
2022/01/25 05:30:31;;;;;;;35.17;14.47;;;;;;;2.59;100.00;101870.99;3499701;83;99071;-89
2022/01/25 05:35:32;;;;;;;33.00;13.50;;;;;;;2.59;100.00;101863.66;3502377;83;31548;-90
2022/01/25 05:40:49;;;;;;;34.57;13.97;;;;;;;2.60;100.00;101872.61;3487577;83;99395;-90
2022/01/25 05:45:58;;;;;;;29.92;13.40;;;;;;;2.62;100.00;101876.66;3510712;83;98907;-89
2022/01/25 05:50:54;;;;;;;42.67;15.30;;;;;;;2.63;100.00;101875.55;3540743;82;99079;-90
2022/01/25 05:55:55;;;;;;;35.00;13.38;;;;;;;2.64;100.00;101878.55;3544999;82;99076;-89
2022/01/25 06:00:56;;;;;;;30.83;12.97;;;;;;;2.66;100.00;101882.32;3501410;83;99530;-90
2022/01/25 06:05:57;;;;;;;30.10;12.93;;;;;;;2.64;100.00;101879.91;3507656;83;31573;-90
2022/01/25 06:10:58;;;;;;;32.73;13.97;;;;;;;2.66;100.00;101879.60;3475495;84;99185;-90
2022/01/25 06:15:59;;;;;;;31.33;14.10;;;;;;;2.67;100.00;101881.25;3480789;83;98866;-89
2022/01/25 06:20:59;;;;;;;35.87;14.73;;;;;;;2.67;100.00;101876.59;3475605;83;99085;-90
2022/01/25 06:26:00;;;;;;;33.20;14.97;;;;;;;2.68;100.00;101887.73;3475147;83;98986;-90
2022/01/25 06:31:01;;;;;;;36.30;15.03;;;;;;;2.69;100.00;101877.68;3473112;83;99030;-89
2022/01/25 06:36:03;;;;;;;44.03;15.40;;;;;;;2.69;100.00;101886.63;3472420;83;25819;-90
2022/01/25 06:41:05;;;;;;;38.40;15.38;;;;;;;2.69;100.00;101887.19;3480029;83;98916;-90
2022/01/25 06:46:19;;;;;;;37.37;16.03;;;;;;;2.70;100.00;101880.11;3451022;82;98841;-90
2022/01/25 06:51:20;;;;;;;35.17;15.43;;;;;;;2.70;100.00;101875.21;3476834;83;99107;-89
2022/01/25 06:56:30;;;;;;;36.40;16.27;;;;;;;2.71;100.00;101879.01;3480534;83;99164;-90
2022/01/25 07:01:31;;;;;;;37.05;14.98;;;;;;;2.72;100.00;101885.23;3471792;83;99186;-90
2022/01/25 07:06:32;;;;;;;41.53;16.03;;;;;;;2.74;100.00;101878.98;3483199;83;99034;-90
2022/01/25 07:11:33;;;;;;;30.20;13.38;;;;;;;2.75;100.00;101878.70;3530965;82;98858;-89
2022/01/25 07:16:34;;;;;;;36.70;16.23;;;;;;;2.73;100.00;101886.31;3507137;83;98956;-90
2022/01/25 07:21:35;;;;;;;31.13;13.67;;;;;;;2.76;100.00;101884.92;3490119;83;99105;-89
2022/01/25 07:26:35;;;;;;;32.13;13.17;;;;;;;2.78;100.00;101876.73;3499973;83;99075;-90
2022/01/25 07:31:36;;;;;;;30.40;13.90;;;;;;;2.78;100.00;101880.82;3501159;83;98998;-89
2022/01/25 07:36:38;;;;;;;32.23;12.93;;;;;;;2.80;100.00;101875.89;3497532;83;99039;-91
2022/01/25 07:41:40;;;;;;;28.67;13.60;;;;;;;2.80;100.00;101881.89;3501579;83;98888;-90
2022/01/25 07:46:41;;;;;;;32.37;14.87;;;;;;;2.82;100.00;101900.08;3500867;83;98863;-89
2022/01/25 07:51:42;;;;;;;33.90;14.53;;;;;;;2.84;100.00;101900.05;3489883;83;98923;-89
2022/01/25 07:56:43;;;;;;;35.00;13.77;;;;;;;2.89;100.00;101879.59;3501998;83;99052;-90
2022/01/25 08:01:44;;;;;;;33.20;13.25;;;;;;;2.93;100.00;101865.69;3500752;83;99023;-90
2022/01/25 08:06:48;;;;;;;34.50;13.40;;;;;;;2.95;100.00;101864.05;3491830;83;99153;-90
2022/01/25 08:11:49;;;;;;;34.55;14.03;;;;;;;2.95;100.00;101861.33;3504103;83;98803;-89
2022/01/25 08:16:52;;;;;;;39.83;16.53;;;;;;;3.01;100.00;101868.31;3508986;83;98910;-88
2022/01/25 08:21:53;;;;;;;26.55;11.30;;;;;;;3.03;100.00;101876.98;3500760;83;98884;-91
2022/01/25 08:26:54;;;;;;;31.47;14.00;;;;;;;3.05;100.00;101860.63;3505150;83;99115;-90
2022/01/25 08:31:54;;;;;;;34.10;12.73;;;;;;;3.09;100.00;101855.41;3453930;83;99140;-90
2022/01/25 08:36:56;;;;;;;32.23;14.40;;;;;;;3.11;100.00;101858.09;3458112;83;99115;-90
2022/01/25 08:41:57;;;;;;;47.75;22.02;;;;;;;3.12;100.00;101856.20;3504124;83;98834;-89
2022/01/25 08:47:16;;;;;;;37.37;16.83;;;;;;;3.15;100.00;101857.78;3506289;83;98835;-89
2022/01/25 08:52:17;;;;;;;34.48;16.25;;;;;;;3.20;100.00;101850.08;3530702;82;98908;-90
2022/01/25 08:57:19;;;;;;;27.73;11.67;;;;;;;3.24;100.00;101846.50;3493069;83;98986;-90
2022/01/25 09:02:20;;;;;;;32.03;13.37;;;;;;;3.27;100.00;101851.34;3506677;83;99108;-89
2022/01/25 09:07:21;;;;;;;32.67;14.83;;;;;;;3.32;100.00;101843.65;3495570;81;99028;-92
2022/01/25 09:12:22;;;;;;;47.50;21.13;;;;;;;3.35;100.00;101834.91;3487663;82;98955;-90
2022/01/25 09:17:43;;;;;;;33.33;14.87;;;;;;;3.36;100.00;101843.33;3512854;82;32859;-90
2022/01/25 09:22:44;;;;;;;25.50;10.88;;;;;;;3.42;100.00;101837.52;3514278;82;98790;-90
2022/01/25 09:27:45;;;;;;;26.83;12.10;;;;;;;3.44;100.00;101835.30;3515516;82;98932;-90
2022/01/25 09:32:46;;;;;;;30.97;13.50;;;;;;;3.44;100.00;101831.79;3510971;81;98958;-90
2022/01/25 09:37:47;;;;;;;25.63;11.90;;;;;;;3.33;100.00;101812.06;3515123;82;98980;-90
2022/01/25 09:42:55;;;;;;;24.00;11.10;;;;;;;3.55;100.00;101836.77;3516001;82;99058;-88
2022/01/25 09:47:56;;;;;;;27.42;11.88;;;;;;;3.57;100.00;101832.39;3518968;82;35388;-90
2022/01/25 09:53:00;;;;;;;24.87;12.78;;;;;;;3.62;100.00;101818.16;3460057;82;99146;-90
2022/01/25 09:58:02;;;;;;;28.62;12.28;;;;;;;3.64;100.00;101813.22;3520624;82;98980;-90
2022/01/25 10:03:15;;;;;;;33.18;12.80;;;;;;;3.65;100.00;101822.99;3528247;82;99009;-91
2022/01/25 10:08:25;;;;;;;39.35;20.82;;;;;;;3.69;100.00;101821.30;3484448;82;99189;-89
2022/01/25 10:13:34;;;;;;;27.27;12.75;;;;;;;3.73;100.00;101818.79;3482124;83;98994;-90
2022/01/25 10:18:57;;;;;;;31.97;13.40;;;;;;;3.78;100.00;101819.50;3470837;83;108748;-91
2022/01/25 10:24:23;;;;;;;25.50;12.88;;;;;;;3.83;100.00;101814.54;3463496;83;34694;-90
2022/01/25 10:29:34;;;;;;;28.47;13.20;;;;;;;3.85;100.00;101806.87;3515033;81;99134;-89
2022/01/25 10:34:49;;;;;;;39.83;17.77;;;;;;;3.87;100.00;101810.91;3473694;83;98956;-90
2022/01/25 10:39:53;;;;;;;27.80;13.32;;;;;;;3.87;100.00;101804.67;3468602;83;99328;-90
2022/01/25 10:45:09;;;;;;;27.70;12.88;;;;;;;3.94;100.00;101806.45;3480525;83;99047;-89
2022/01/25 10:50:22;;;;;;;28.27;11.83;;;;;;;3.96;100.00;101808.30;3465911;83;99073;-89
2022/01/25 10:55:23;;;;;;;25.92;12.30;;;;;;;3.97;100.00;101801.20;3480045;83;99202;-89
2022/01/25 11:00:33;;;;;;;26.47;11.33;;;;;;;4.01;100.00;101791.88;3503870;82;98693;-90
2022/01/25 11:05:47;;;;;;;31.80;14.20;;;;;;;4.05;100.00;101806.52;3460366;83;98934;-88
2022/01/25 11:10:53;;;;;;;37.53;14.13;;;;;;;4.06;100.00;101798.59;3478846;83;99011;-87
2022/01/25 11:15:51;;;;;;;26.17;12.55;;;;;;;4.07;100.00;101792.86;3508223;83;99033;-87
2022/01/25 11:20:54;;;;;;;28.23;12.90;;;;;;;4.11;100.00;101791.69;3475645;83;99052;-87
2022/01/25 11:25:56;;;;;;;27.35;12.15;;;;;;;4.12;100.00;101780.50;3508683;83;99608;-87
2022/01/25 11:31:01;;;;;;;27.67;12.37;;;;;;;4.13;100.00;101772.58;3499688;83;99503;-89
2022/01/25 11:36:09;;;;;;;29.80;13.40;;;;;;;4.13;100.00;101763.04;3529797;82;32992;-87
2022/01/25 11:41:14;;;;;;;28.25;12.70;;;;;;;4.17;100.00;101765.97;3469774;83;98968;-87
2022/01/25 11:46:19;;;;;;;33.60;15.67;;;;;;;4.18;100.00;101767.58;3510068;83;99120;-87
2022/01/25 11:51:20;;;;;;;29.63;15.32;;;;;;;4.21;100.00;101765.05;3473832;83;99082;-86
2022/01/25 11:56:21;;;;;;;30.15;13.32;;;;;;;4.23;100.00;101764.21;3508189;83;99156;-87
2022/01/25 12:01:30;;;;;;;27.67;13.03;;;;;;;4.23;100.00;101762.84;3469660;83;99030;-88
2022/01/25 12:06:38;;;;;;;27.00;12.00;;;;;;;4.27;100.00;101767.92;3533319;82;35399;-88
2022/01/25 12:11:49;;;;;;;28.77;12.60;;;;;;;4.27;100.00;101772.02;3512669;83;98889;-86
2022/01/25 12:17:15;;;;;;;29.75;13.15;;;;;;;4.29;100.00;101775.80;3517215;82;98762;-88
2022/01/25 12:22:37;;;;;;;28.32;12.40;;;;;;;4.32;100.00;101756.14;3513831;82;99292;-88
2022/01/25 12:28:06;;;;;;;30.17;13.40;;;;;;;4.34;100.00;101761.54;3518821;82;98961;-87
2022/01/25 12:33:17;;;;;;;30.02;13.68;;;;;;;4.35;100.00;101743.25;3516916;82;99034;-87
2022/01/25 12:38:23;;;;;;;26.87;11.38;;;;;;;4.35;100.00;101748.16;3511089;82;99036;-86
2022/01/25 12:43:28;;;;;;;24.18;13.43;;;;;;;4.37;100.00;101730.14;3529489;82;99096;-87
2022/01/25 12:48:36;;;;;;;27.50;12.90;;;;;;;4.39;100.00;101736.91;3518414;82;98875;-86
2022/01/25 12:53:41;;;;;;;24.43;11.75;;;;;;;4.42;100.00;101728.68;3522629;82;99254;-87
2022/01/25 12:58:44;;;;;;;22.70;11.30;;;;;;;4.42;100.00;101717.20;3518978;82;99235;-87
2022/01/25 13:03:52;;;;;;;24.80;10.95;;;;;;;4.43;100.00;101718.81;3524826;82;99138;-87
2022/01/25 13:09:11;;;;;;;23.98;11.15;;;;;;;4.47;100.00;101710.86;3511025;82;99140;-86
2022/01/25 13:19:17;;;;;;;23.67;12.20;;;;;;;4.45;100.00;101701.62;3512420;82;99007;-87
2022/01/25 13:24:20;;;;;;;21.35;11.28;;;;;;;4.44;100.00;101704.64;3502835;82;33058;-89
2022/01/25 13:34:41;;;;;;;24.65;12.23;;;;;;;4.41;100.00;101704.69;3517733;82;98911;-87
2022/01/25 13:39:42;;;;;;;26.13;11.83;;;;;;;4.43;100.00;101707.91;3498505;81;99429;-87
2022/01/25 13:49:51;;;;;;;25.02;11.50;;;;;;;4.43;100.00;101694.28;3447020;82;99151;-87
2022/01/25 13:54:52;;;;;;;37.63;19.37;;;;;;;4.42;100.00;101686.43;3526741;82;30617;-87
2022/01/25 13:59:55;;;;;;;24.12;12.50;;;;;;;4.40;100.00;101683.19;3514165;82;98750;-87
2022/01/25 14:05:04;;;;;;;24.25;12.58;;;;;;;4.39;100.00;101691.94;3518637;82;98816;-86
2022/01/25 14:10:17;;;;;;;23.92;12.10;;;;;;;4.34;100.00;101694.77;3512251;82;99037;-87
2022/01/25 14:26:03;;;;;;;23.35;12.10;;;;;;;4.35;100.00;101701.83;3478909;83;98284;-86
2022/01/25 14:31:03;;;;;;;29.15;14.73;;;;;;;4.32;100.00;101695.61;3528434;82;99096;-87
2022/01/25 14:36:09;;;;;;;26.97;14.33;;;;;;;4.33;100.00;101706.78;3457222;84;32370;-86
2022/01/25 14:41:28;;;;;;;25.70;12.90;;;;;;;4.33;100.00;101708.69;3509063;83;98887;-87
2022/01/25 14:46:37;;;;;;;30.15;14.35;;;;;;;4.32;100.00;101708.45;3407956;84;98793;-86
2022/01/25 14:51:51;;;;;;;26.35;12.40;;;;;;;4.33;100.00;101710.88;3453278;82;99190;-88
2022/01/25 14:56:57;;;;;;;28.20;14.98;;;;;;;4.30;100.00;101712.01;3537297;82;99100;-86
2022/01/25 15:02:08;;;;;;;25.70;13.70;;;;;;;4.29;100.00;101715.30;3517237;82;99437;-89
2022/01/25 15:07:22;;;;;;;26.20;14.07;;;;;;;4.28;100.00;101717.78;3525441;82;99139;-89
2022/01/25 15:12:44;;;;;;;28.35;15.75;;;;;;;4.28;100.00;101721.05;3455681;83;99139;-88
2022/01/25 15:17:40;;;;;;;27.50;14.73;;;;;;;4.28;100.00;101733.32;3448496;83;99549;-89
2022/01/25 15:22:43;;;;;;;24.63;12.80;;;;;;;4.28;100.00;101723.23;3517936;82;99229;-89
2022/01/25 15:27:44;;;;;;;27.95;15.65;;;;;;;4.25;100.00;101723.05;3488925;82;99424;-89
2022/01/25 15:32:47;;;;;;;27.48;15.15;;;;;;;4.24;100.00;101717.31;3477803;83;99072;-90
2022/01/25 15:37:49;;;;;;;26.82;14.58;;;;;;;4.28;100.00;101721.05;3442181;84;99145;-89
2022/01/25 15:42:50;;;;;;;26.00;15.05;;;;;;;4.26;100.00;101732.83;3509168;82;98927;-89
2022/01/25 15:47:51;;;;;;;23.52;12.98;;;;;;;4.23;100.00;101738.33;3457639;83;98794;-89
2022/01/25 15:52:53;;;;;;;31.63;16.77;;;;;;;4.25;100.00;101738.03;3461541;83;99356;-89
2022/01/25 15:57:58;;;;;;;31.65;15.53;;;;;;;4.25;100.00;101744.84;3459834;83;99127;-89
2022/01/25 16:02:59;;;;;;;31.40;16.00;;;;;;;4.23;100.00;101745.68;3462307;83;99065;-89
2022/01/25 16:08:00;;;;;;;32.70;16.52;;;;;;;4.24;100.00;101751.38;3467374;83;99006;-90
2022/01/25 16:13:02;;;;;;;25.00;13.50;;;;;;;4.22;100.00;101749.52;3492010;83;99532;-93
2022/01/25 16:18:03;;;;;;;25.20;13.23;;;;;;;4.22;100.00;101758.52;3514089;83;27480;-89
2022/01/25 16:23:06;;;;;;;26.87;14.17;;;;;;;4.20;100.00;101756.63;3491936;83;99184;-90
2022/01/25 16:28:07;;;;;;;31.90;16.75;;;;;;;4.20;100.00;101753.11;3498253;83;99556;-88
2022/01/25 16:33:10;;;;;;;30.00;15.93;;;;;;;4.18;100.00;101746.59;3508001;82;99055;-89
2022/01/25 16:38:11;;;;;;;28.35;14.47;;;;;;;4.18;100.00;101754.77;3499979;83;99110;-89
2022/01/25 16:43:16;;;;;;;39.23;20.00;;;;;;;4.17;100.00;101755.89;3503971;83;99036;-89
2022/01/25 16:48:17;;;;;;;36.10;17.53;;;;;;;4.19;100.00;101750.11;3509422;83;25833;-89
2022/01/25 16:53:18;;;;;;;30.77;16.43;;;;;;;4.17;100.00;101749.08;3474073;83;98851;-90
2022/01/25 16:58:19;;;;;;;28.80;15.07;;;;;;;4.15;100.00;101754.00;3503422;83;99376;-90
2022/01/25 17:03:24;;;;;;;30.53;15.37;;;;;;;4.15;100.00;101752.64;3549335;82;98989;-89
2022/01/25 17:08:27;;;;;;;30.10;15.68;;;;;;;4.13;100.00;101747.23;3559901;82;99085;-89
2022/01/25 17:13:29;;;;;;;33.03;17.63;;;;;;;4.13;100.00;101734.43;3490530;83;99067;-89
2022/01/25 17:18:33;;;;;;;37.35;19.07;;;;;;;4.15;100.00;101735.50;3481957;83;99010;-89
2022/01/25 17:23:39;;;;;;;30.47;15.63;;;;;;;4.14;100.00;101734.68;3483490;83;99074;-88
2022/01/25 17:28:40;;;;;;;29.90;15.55;;;;;;;4.16;100.00;101731.66;3470490;83;98995;-90
2022/01/25 17:33:41;;;;;;;25.80;13.80;;;;;;;4.14;100.00;101734.68;3486981;83;98238;-89
2022/01/25 17:38:54;;;;;;;32.77;15.07;;;;;;;4.12;100.00;101733.37;3465971;83;99192;-89
2022/01/25 17:43:57;;;;;;;28.45;14.85;;;;;;;4.11;100.00;101739.93;3485552;83;99131;-88
2022/01/25 17:48:58;;;;;;;32.33;14.93;;;;;;;4.10;100.00;101726.84;3481452;83;98991;-89
2022/01/25 17:54:00;;;;;;;29.42;15.38;;;;;;;4.12;100.00;101730.64;3483357;83;98799;-90
2022/01/25 17:59:03;;;;;;;31.57;16.63;;;;;;;4.12;100.00;101736.09;3468713;83;98972;-90
2022/01/25 18:04:04;;;;;;;36.17;17.90;;;;;;;4.11;100.00;101739.39;3482877;83;99137;-90
2022/01/25 18:09:06;;;;;;;30.03;15.93;;;;;;;4.12;100.00;101735.55;3505939;81;98971;-90
2022/01/25 18:14:09;;;;;;;32.90;17.62;;;;;;;4.13;100.00;101738.52;3476620;83;99405;-90
2022/01/25 18:19:12;;;;;;;29.27;14.70;;;;;;;4.13;100.00;101733.07;3463463;83;99376;-90
2022/01/25 18:24:20;;;;;;;30.92;15.65;;;;;;;4.11;100.00;101735.84;3516247;83;34802;-89
2022/01/25 18:29:22;;;;;;;34.63;16.12;;;;;;;4.13;100.00;101733.61;3499727;82;99211;-90
2022/01/25 18:34:22;;;;;;;50.30;21.02;;;;;;;4.13;100.00;101743.15;3436570;84;99092;-90
2022/01/25 18:39:24;;;;;;;45.55;20.20;;;;;;;4.13;100.00;101739.06;3423919;84;99046;-89
2022/01/25 18:44:25;;;;;;;41.57;18.83;;;;;;;4.10;100.00;101735.02;3518878;82;99051;-90
2022/01/25 18:49:28;;;;;;;40.13;18.17;;;;;;;4.08;100.00;101724.99;3460164;84;99152;-90
2022/01/25 18:54:28;;;;;;;37.75;18.62;;;;;;;4.09;100.00;101720.37;3464429;84;34776;-91
2022/01/25 18:59:29;;;;;;;40.70;19.47;;;;;;;4.10;100.00;101715.95;3464649;83;99044;-90
2022/01/25 19:04:30;;;;;;;41.03;17.10;;;;;;;4.10;100.00;101720.61;3473998;83;98903;-91
2022/01/25 19:09:33;;;;;;;36.33;16.20;;;;;;;4.12;100.00;101718.38;3464849;83;99186;-93
2022/01/25 19:14:34;;;;;;;48.70;20.27;;;;;;;4.12;100.00;101708.30;3496474;83;99040;-90
2022/01/25 19:19:35;;;;;;;51.80;19.87;;;;;;;4.13;100.00;101709.91;3498172;81;98972;-89
2022/01/25 19:24:36;;;;;;;41.20;19.57;;;;;;;4.12;100.00;101703.40;3512016;83;32678;-89
2022/01/25 19:29:37;;;;;;;43.43;20.40;;;;;;;4.11;100.00;101708.59;3492768;83;99309;-89
2022/01/25 19:34:38;;;;;;;32.20;16.90;;;;;;;4.10;100.00;101708.35;3505706;83;98838;-89
2022/01/25 19:39:46;;;;;;;34.93;16.67;;;;;;;4.11;100.00;101693.62;3494882;82;99054;-90
2022/01/25 19:44:42;;;;;;;30.13;15.43;;;;;;;4.12;100.00;101696.05;3503576;83;99099;-90
2022/01/25 19:49:43;;;;;;;30.07;14.73;;;;;;;4.13;100.00;101692.75;3452600;83;99120;-91
2022/01/25 19:54:44;;;;;;;29.03;14.70;;;;;;;4.15;100.00;101701.44;3492645;83;32879;-91
2022/01/25 19:59:47;;;;;;;31.87;16.60;;;;;;;4.14;100.00;101698.47;3492943;83;98920;-89
2022/01/25 20:04:51;;;;;;;29.75;14.98;;;;;;;4.14;100.00;101693.81;3498402;83;98876;-89
2022/01/25 20:09:55;;;;;;;28.52;14.65;;;;;;;4.15;100.00;101699.51;3475276;83;99078;-89
2022/01/25 20:15:05;;;;;;;42.55;21.42;;;;;;;4.14;100.00;101695.17;3504708;82;99119;-89
2022/01/25 20:20:18;;;;;;;35.88;17.05;;;;;;;4.16;100.00;101691.58;3511603;83;99029;-91
2022/01/25 20:25:29;;;;;;;37.45;16.07;;;;;;;4.19;100.00;101694.25;3512003;82;98246;-91
2022/01/25 20:30:24;;;;;;;26.63;13.20;;;;;;;4.17;100.00;101689.12;3508949;82;99006;-90
2022/01/25 20:35:25;;;;;;;32.20;14.50;;;;;;;4.18;100.00;101687.20;3514062;82;98896;-89
2022/01/25 20:40:26;;;;;;;33.48;14.28;;;;;;;4.15;100.00;101682.38;3506176;82;99078;-90
2022/01/25 20:45:27;;;;;;;40.52;15.32;;;;;;;4.13;100.00;101681.85;3510092;82;99024;-91
2022/01/25 20:50:27;;;;;;;31.93;14.50;;;;;;;4.13;100.00;101680.48;3494615;82;99067;-90
2022/01/25 20:55:29;;;;;;;31.83;14.13;;;;;;;4.12;100.00;101678.34;3515664;82;99150;-90
2022/01/25 21:00:40;;;;;;;28.93;14.13;;;;;;;4.14;100.00;101683.48;3532326;81;99345;-90
2022/01/25 21:10:59;;;;;;;26.10;12.98;;;;;;;4.13;100.00;101681.30;3514377;82;99027;-90
2022/01/25 21:16:02;;;;;;;25.48;12.68;;;;;;;4.13;100.00;101670.41;3496648;82;99080;-90
2022/01/25 21:21:08;;;;;;;42.62;18.82;;;;;;;4.12;100.00;101673.43;3481002;82;99178;-89
2022/01/25 21:26:09;;;;;;;32.83;16.17;;;;;;;4.13;100.00;101670.95;3519962;82;99165;-90
2022/01/25 21:31:10;;;;;;;24.57;12.78;;;;;;;4.12;100.00;101672.89;3507066;83;98699;-91
2022/01/25 21:36:11;;;;;;;25.07;12.77;;;;;;;4.12;100.00;101668.80;3492027;82;98719;-91
2022/01/25 21:41:13;;;;;;;25.40;12.83;;;;;;;4.14;100.00;101664.42;3510478;82;98841;-90
2022/01/25 21:46:14;;;;;;;27.80;13.47;;;;;;;4.12;100.00;101663.35;3479936;82;99426;-91
2022/01/25 21:51:15;;;;;;;28.83;13.07;;;;;;;4.15;100.00;101654.55;3513043;82;98983;-91
2022/01/25 21:56:16;;;;;;;26.20;13.13;;;;;;;4.16;100.00;101654.01;3510228;83;99001;-91
2022/01/25 22:01:17;;;;;;;32.40;15.40;;;;;;;4.16;100.00;101650.71;3515357;82;99013;-92
2022/01/25 22:06:32;;;;;;;34.77;14.63;;;;;;;4.18;100.00;101653.95;3513798;82;32447;-93
2022/01/25 22:11:28;;;;;;;29.98;13.93;;;;;;;4.08;100.00;101638.36;3512275;82;98948;-92
2022/01/25 22:16:29;;;;;;;24.18;12.47;;;;;;;4.17;100.00;101652.34;3507151;83;99047;-91
2022/01/25 22:21:32;;;;;;;27.70;12.63;;;;;;;4.19;100.00;101648.75;3494750;83;99017;-90
2022/01/25 22:26:34;;;;;;;20.57;11.15;;;;;;;4.21;100.00;101638.92;3499419;83;99555;-91
2022/01/25 22:31:35;;;;;;;24.00;11.88;;;;;;;4.19;100.00;101643.84;3494624;83;99123;-91
2022/01/25 22:36:36;;;;;;;15.90;7.40;;;;;;;4.17;100.00;101640.63;3508075;83;32370;-90
2022/01/25 22:41:58;;;;;;;14.50;7.47;;;;;;;4.13;100.00;101640.98;3498071;83;98828;-91
2022/01/25 22:47:01;;;;;;;12.73;5.55;;;;;;;4.12;100.00;101637.47;3505928;83;98839;-90
2022/01/25 22:52:02;;;;;;;11.28;4.45;;;;;;;4.10;100.00;101636.16;3499414;83;98837;-90
2022/01/25 22:57:05;;;;;;;10.73;3.63;;;;;;;4.08;100.00;101627.47;3509455;83;98836;-91
2022/01/25 23:02:23;;;;;;;8.03;2.93;;;;;;;4.04;100.00;101626.48;3495957;83;98981;-90
2022/01/25 23:07:28;;;;;;;9.43;2.83;;;;;;;4.01;100.00;101629.27;3500802;83;98634;-90
2022/01/25 23:17:40;;;;;;;10.78;3.83;;;;;;;3.94;100.00;101644.39;3507161;83;98480;-90
2022/01/25 23:22:47;;;;;;;12.15;4.50;;;;;;;3.90;100.00;101631.94;3502371;83;98803;-89
2022/01/25 23:27:55;;;;;;;11.68;4.67;;;;;;;3.83;100.00;101622.56;3494017;83;98887;-89
2022/01/25 23:38:21;;;;;;;15.05;5.92;;;;;;;3.90;100.00;101626.50;3508311;83;98834;-89
2022/01/25 23:43:20;;;;;;;13.10;5.83;;;;;;;3.93;100.00;101629.95;3483209;83;98963;-90
2022/01/25 23:48:18;;;;;;;16.87;7.17;;;;;;;3.94;100.00;101616.58;3507977;83;34751;-90
2022/01/25 23:58:59;;;;;;;20.67;10.93;;;;;;;3.98;100.00;101616.81;3496344;83;98944;-90
